Time;durP1;ratioP1;P1;durP2;ratioP2;P2;SDS_P1;SDS_P2;PMS_P1;PMS_P2;Temp;Humidity;BMP_temperature;BMP_pressure;BME280_temperature;BME280_humidity;BME280_pressure;Samples;Min_cycle;Max_cycle;Signal;HPM_P1;HPM_P2
2022/08/05 00:00:47;;;;;;;5.55;2.45;;;22.80;70.70;;;;;;5031918;28;20033;-69
2022/08/05 00:03:12;;;;;;;7.25;2.30;;;22.80;70.80;;;;;;5015504;28;20092;-68
2022/08/05 00:05:38;;;;;;;5.32;2.40;;;22.80;70.70;;;;;;5018235;28;20057;-68
2022/08/05 00:08:04;;;;;;;7.30;2.70;;;22.80;70.70;;;;;;5018022;28;20112;-68
2022/08/05 00:10:29;;;;;;;6.20;2.38;;;22.80;70.70;;;;;;5011998;28;20036;-68
2022/08/05 00:12:55;;;;;;;7.35;2.55;;;22.80;70.60;;;;;;5024112;28;20327;-69
2022/08/05 00:15:21;;;;;;;5.72;2.38;;;22.80;70.60;;;;;;5021562;28;20033;-68
2022/08/05 00:17:46;;;;;;;6.00;2.22;;;22.80;70.70;;;;;;5022547;28;20052;-68
2022/08/05 00:20:12;;;;;;;6.25;2.20;;;22.80;70.70;;;;;;5015291;28;20022;-68
2022/08/05 00:22:38;;;;;;;4.70;2.15;;;22.70;70.60;;;;;;5024571;28;20033;-68
2022/08/05 00:25:04;;;;;;;5.95;2.63;;;22.70;70.60;;;;;;5016899;28;20046;-68
2022/08/05 00:27:29;;;;;;;5.28;2.17;;;22.70;70.40;;;;;;5030099;28;20429;-69
2022/08/05 00:29:55;;;;;;;4.85;2.28;;;22.70;70.40;;;;;;5016348;28;20030;-68
2022/08/05 00:32:21;;;;;;;5.05;2.17;;;22.70;70.50;;;;;;5012251;28;20022;-69
2022/08/05 00:34:46;;;;;;;5.38;2.55;;;22.70;70.70;;;;;;5029287;28;20049;-68
2022/08/05 00:37:12;;;;;;;7.00;2.50;;;22.70;70.70;;;;;;5021123;28;20447;-68
2022/08/05 00:39:39;;;;;;;5.75;2.50;;;22.70;70.60;;;;;;5024799;28;20029;-68
2022/08/05 00:42:04;;;;;;;6.45;2.70;;;22.60;70.40;;;;;;5023174;28;20022;-68
2022/08/05 00:44:30;;;;;;;5.85;2.30;;;22.60;70.20;;;;;;5034230;28;20087;-68
2022/08/05 00:46:56;;;;;;;6.47;2.50;;;22.60;70.30;;;;;;5021540;28;20362;-68
2022/08/05 00:49:21;;;;;;;6.13;2.40;;;22.60;70.40;;;;;;5026925;28;20021;-68
2022/08/05 00:51:47;;;;;;;6.32;2.40;;;22.60;70.40;;;;;;5003631;28;20224;-68
2022/08/05 00:54:13;;;;;;;6.00;2.42;;;22.50;71.00;;;;;;5026635;28;20034;-68
2022/08/05 00:56:39;;;;;;;6.57;2.70;;;22.60;70.40;;;;;;5021024;28;20064;-68
2022/08/05 00:59:05;;;;;;;7.90;2.70;;;22.50;70.40;;;;;;5029281;28;20022;-68
2022/08/05 01:01:31;;;;;;;8.68;2.60;;;22.50;70.40;;;;;;5017572;28;20018;-68
2022/08/05 01:03:57;;;;;;;6.55;2.45;;;22.50;70.30;;;;;;5034130;28;20032;-68
2022/08/05 01:06:22;;;;;;;5.30;2.55;;;22.50;70.30;;;;;;5020806;28;20025;-69
2022/08/05 01:08:48;;;;;;;5.78;2.60;;;22.50;70.30;;;;;;5022811;28;20299;-68
2022/08/05 01:11:20;;;;;;;6.20;2.60;;;22.50;70.20;;;;;;5014954;28;20434;-68
2022/08/05 01:14:08;;;;;;;5.93;2.75;;;22.50;70.10;;;;;;5027171;28;20057;-70
2022/08/05 01:16:52;;;;;;;5.70;2.30;;;22.50;70.20;;;;;;5016065;28;20634;-68
2022/08/05 01:19:20;;;;;;;7.53;2.60;;;22.50;70.20;;;;;;5024585;28;20362;-68
2022/08/05 01:22:11;;;;;;;7.13;2.85;;;22.40;70.20;;;;;;5013030;28;20436;-68
2022/08/05 01:24:49;;;;;;;6.35;2.67;;;22.40;70.10;;;;;;5013826;28;20448;-68
2022/08/05 01:27:48;;;;;;;7.10;2.70;;;22.40;70.30;;;;;;4998651;28;20172;-68
2022/08/05 01:30:15;;;;;;;6.88;2.67;;;22.40;70.20;;;;;;5009400;28;20032;-68
2022/08/05 01:32:44;;;;;;;6.88;2.85;;;22.40;70.20;;;;;;5017168;28;20041;-68
2022/08/05 01:35:16;;;;;;;9.15;2.85;;;22.40;70.30;;;;;;5035638;28;20029;-68
2022/08/05 01:37:52;;;;;;;6.72;2.72;;;22.30;70.20;;;;;;5015326;28;20026;-68
2022/08/05 01:40:23;;;;;;;7.15;2.80;;;22.40;70.30;;;;;;5025038;28;20412;-68
2022/08/05 01:42:51;;;;;;;6.15;2.47;;;22.30;70.30;;;;;;5012525;28;20107;-68
2022/08/05 01:45:19;;;;;;;7.20;2.63;;;22.30;70.30;;;;;;5029974;28;20026;-68
2022/08/05 01:47:47;;;;;;;8.77;2.97;;;22.30;70.20;;;;;;5026529;28;20094;-70
2022/08/05 01:50:37;;;;;;;5.78;2.72;;;22.30;70.10;;;;;;5023503;28;20029;-68
2022/08/05 01:53:06;;;;;;;7.00;2.58;;;22.30;70.20;;;;;;5023670;28;20171;-69
2022/08/05 01:55:33;;;;;;;6.72;2.88;;;22.30;70.30;;;;;;5027174;28;20033;-68
2022/08/05 01:58:03;;;;;;;6.80;2.85;;;22.20;70.10;;;;;;5023776;28;20033;-69
2022/08/05 02:00:32;;;;;;;7.55;2.30;;;22.30;70.20;;;;;;5018018;28;20022;-68
2022/08/05 02:03:05;;;;;;;5.97;2.60;;;22.20;70.20;;;;;;5032596;28;20026;-69
2022/08/05 02:05:33;;;;;;;7.10;2.83;;;22.30;70.30;;;;;;5023337;28;20021;-68
2022/08/05 02:08:00;;;;;;;5.93;2.58;;;22.30;70.30;;;;;;5025350;28;20109;-68
2022/08/05 02:10:27;;;;;;;8.60;3.00;;;22.30;70.30;;;;;;5013627;28;20037;-68
2022/08/05 02:13:02;;;;;;;6.72;2.60;;;22.30;71.00;;;;;;5029268;28;20431;-68
2022/08/05 02:15:40;;;;;;;7.85;3.10;;;22.30;70.30;;;;;;5036475;28;20030;-68
2022/08/05 02:18:39;;;;;;;7.15;3.03;;;22.20;70.30;;;;;;5029890;28;20021;-68
2022/08/05 02:21:18;;;;;;;7.43;2.65;;;22.20;70.30;;;;;;5016383;28;20029;-69
2022/08/05 02:23:48;;;;;;;6.63;2.47;;;22.20;70.30;;;;;;5031691;28;20053;-68
2022/08/05 02:26:20;;;;;;;7.22;2.85;;;22.20;70.40;;;;;;5024794;28;20033;-68
2022/08/05 02:28:48;;;;;;;5.75;2.85;;;22.20;70.50;;;;;;5024647;28;20029;-68
2022/08/05 02:31:21;;;;;;;7.63;2.92;;;22.20;70.40;;;;;;5013225;28;20027;-68
2022/08/05 02:33:51;;;;;;;5.88;2.83;;;22.20;70.30;;;;;;5030203;28;20029;-68
2022/08/05 02:36:19;;;;;;;6.35;2.58;;;22.20;70.40;;;;;;5027927;28;20117;-68
2022/08/05 02:38:47;;;;;;;7.75;3.10;;;22.20;70.40;;;;;;5029433;28;20086;-68
2022/08/05 02:41:14;;;;;;;7.15;2.88;;;22.10;70.40;;;;;;5015381;28;20362;-68
2022/08/05 02:43:40;;;;;;;6.25;2.97;;;22.10;70.30;;;;;;5029522;28;20033;-68
2022/08/05 02:46:06;;;;;;;6.85;2.80;;;22.10;70.30;;;;;;5033407;28;20053;-68
2022/08/05 02:48:33;;;;;;;8.30;3.15;;;22.10;70.30;;;;;;5022092;28;20433;-68
2022/08/05 02:51:02;;;;;;;8.65;2.90;;;22.10;70.30;;;;;;5015385;28;20057;-68
2022/08/05 02:53:32;;;;;;;5.85;2.63;;;22.10;70.30;;;;;;5022738;28;20048;-68
2022/08/05 02:55:59;;;;;;;7.20;2.53;;;22.10;70.30;;;;;;5023374;28;20030;-68
2022/08/05 02:58:25;;;;;;;7.40;2.95;;;22.10;70.40;;;;;;5020788;28;20030;-68
2022/08/05 03:00:56;;;;;;;8.02;3.35;;;22.10;70.40;;;;;;5022008;28;20120;-68
2022/08/05 03:03:22;;;;;;;6.28;2.88;;;22.10;70.40;;;;;;5007724;28;20434;-68
2022/08/05 03:05:49;;;;;;;8.20;3.08;;;22.10;70.40;;;;;;5034715;28;20104;-68
2022/08/05 03:08:16;;;;;;;6.50;2.95;;;22.10;70.50;;;;;;5021154;28;20026;-68
2022/08/05 03:10:42;;;;;;;7.93;2.88;;;22.10;70.50;;;;;;5027475;28;20038;-68
2022/08/05 03:13:13;;;;;;;8.52;3.15;;;22.00;70.70;;;;;;5022869;28;20452;-68
2022/08/05 03:15:43;;;;;;;;;;;22.00;70.70;;;;;;5014075;28;20040;-68
2022/08/05 03:18:08;;;;;;;5.47;2.50;;;22.00;70.60;;;;;;5021607;28;19936;-68
2022/08/05 03:20:34;;;;;;;7.55;3.03;;;22.00;70.70;;;;;;5024837;28;20032;-68
2022/08/05 03:23:00;;;;;;;6.45;2.97;;;22.00;70.70;;;;;;5023763;28;20022;-68
2022/08/05 03:25:27;;;;;;;7.47;3.13;;;22.00;70.80;;;;;;5027584;28;20090;-68
2022/08/05 03:27:56;;;;;;;7.18;3.13;;;22.00;70.80;;;;;;5010663;28;20021;-68
2022/08/05 03:30:23;;;;;;;6.80;2.72;;;22.00;70.90;;;;;;5020864;28;20037;-68
2022/08/05 03:32:49;;;;;;;6.65;3.42;;;22.00;70.80;;;;;;5021042;28;20408;-68
2022/08/05 03:35:15;;;;;;;6.32;2.90;;;22.00;70.80;;;;;;5024367;28;20109;-68
2022/08/05 03:37:40;;;;;;;7.38;3.05;;;22.00;70.80;;;;;;5024364;28;20291;-68
2022/08/05 03:40:08;;;;;;;7.95;3.47;;;21.90;70.80;;;;;;5022744;28;20044;-68
2022/08/05 03:42:34;;;;;;;7.00;3.25;;;22.00;70.90;;;;;;5019247;28;20337;-68
2022/08/05 03:45:00;;;;;;;6.30;3.20;;;22.00;70.90;;;;;;5016455;28;20028;-68
2022/08/05 03:47:26;;;;;;;8.23;3.10;;;22.00;71.10;;;;;;5015610;28;20131;-68
2022/08/05 03:49:52;;;;;;;7.50;3.65;;;22.00;70.80;;;;;;5024140;28;20030;-68
2022/08/05 03:52:23;;;;;;;8.07;2.97;;;22.00;70.90;;;;;;5002250;28;20030;-68
2022/08/05 03:54:54;;;;;;;6.47;2.92;;;21.90;70.90;;;;;;5017554;28;20044;-68
2022/08/05 03:57:24;;;;;;;8.18;2.75;;;21.90;71.60;;;;;;5020731;28;20053;-68
2022/08/05 03:59:58;;;;;;;6.65;2.90;;;21.90;70.90;;;;;;5016231;28;20389;-68
2022/08/05 04:02:28;;;;;;;6.55;2.83;;;21.90;70.90;;;;;;5010580;28;20026;-68
2022/08/05 04:04:57;;;;;;;7.75;3.33;;;21.90;70.90;;;;;;5006188;28;20034;-68
2022/08/05 04:07:23;;;;;;;6.38;2.85;;;21.90;70.90;;;;;;5014376;28;20025;-68
2022/08/05 04:09:49;;;;;;;8.60;2.95;;;21.80;70.90;;;;;;5023040;28;20366;-68
2022/08/05 04:12:15;;;;;;;7.50;2.90;;;21.80;70.90;;;;;;5030553;28;20073;-68
2022/08/05 04:14:42;;;;;;;5.85;2.75;;;21.80;71.10;;;;;;5020860;28;20529;-68
2022/08/05 04:17:08;;;;;;;8.20;3.28;;;21.80;71.20;;;;;;5013137;28;20030;-68
2022/08/05 04:19:45;;;;;;;7.93;3.30;;;21.70;71.10;;;;;;5019992;28;20052;-66
2022/08/05 04:22:11;;;;;;;6.32;3.08;;;21.70;71.20;;;;;;5020437;28;20034;-66
2022/08/05 04:24:42;;;;;;;6.22;2.92;;;21.70;71.30;;;;;;5021139;28;20026;-66
2022/08/05 04:27:08;;;;;;;;;;;21.70;71.30;;;;;;5015650;28;20108;-67
2022/08/05 04:29:34;;;;;;;6.88;2.70;;;21.70;71.20;;;;;;5025590;28;19995;-67
2022/08/05 04:31:59;;;;;;;7.63;3.03;;;21.70;71.30;;;;;;5007822;28;20462;-67
2022/08/05 04:34:25;;;;;;;4.95;2.30;;;21.70;71.30;;;;;;5033367;28;20030;-67
2022/08/05 04:36:51;;;;;;;7.43;3.22;;;21.70;71.30;;;;;;5023931;28;20025;-67
2022/08/05 04:39:20;;;;;;;5.82;2.50;;;21.70;71.40;;;;;;5019826;28;20037;-67
2022/08/05 04:41:46;;;;;;;5.43;2.65;;;21.80;71.50;;;;;;5015489;28;20029;-67
2022/08/05 04:44:12;;;;;;;9.85;2.85;;;21.70;71.40;;;;;;5034633;28;20025;-67
2022/08/05 04:46:39;;;;;;;6.97;3.08;;;21.70;71.40;;;;;;5022083;28;20486;-67
2022/08/05 04:49:06;;;;;;;9.07;3.20;;;21.70;71.50;;;;;;5012753;28;20076;-67
2022/08/05 04:51:31;;;;;;;8.40;2.78;;;21.70;71.40;;;;;;5006099;28;20061;-67
2022/08/05 04:53:58;;;;;;;5.10;2.50;;;21.70;71.50;;;;;;5012966;28;20060;-67
2022/08/05 04:56:24;;;;;;;8.10;2.60;;;21.70;71.50;;;;;;5011010;28;20026;-67
2022/08/05 04:58:50;;;;;;;5.35;2.42;;;21.60;71.50;;;;;;5013603;28;20406;-66
2022/08/05 05:01:15;;;;;;;7.72;3.03;;;21.60;71.60;;;;;;5014745;28;20069;-67
2022/08/05 05:03:41;;;;;;;6.50;3.00;;;21.60;71.60;;;;;;5013203;28;20018;-67
2022/08/05 05:06:11;;;;;;;7.13;2.78;;;21.70;71.70;;;;;;5010302;28;20518;-67
2022/08/05 05:08:37;;;;;;;6.20;2.55;;;21.70;71.60;;;;;;5017122;28;20037;-66
2022/08/05 05:11:04;;;;;;;6.50;2.90;;;21.70;71.50;;;;;;5014557;28;20064;-67
2022/08/05 05:13:30;;;;;;;6.78;3.10;;;21.70;71.50;;;;;;5019018;28;20042;-68
2022/08/05 05:15:55;;;;;;;7.30;2.58;;;21.80;71.50;;;;;;5017303;28;20025;-67
2022/08/05 05:18:21;;;;;;;5.38;2.40;;;21.80;71.50;;;;;;5018567;28;20029;-67
2022/08/05 05:20:47;;;;;;;6.57;2.75;;;21.80;71.50;;;;;;5009728;28;20026;-67
2022/08/05 05:23:13;;;;;;;5.82;2.75;;;21.80;71.50;;;;;;5012540;28;20029;-67
2022/08/05 05:25:43;;;;;;;8.30;2.72;;;21.80;71.50;;;;;;5012080;28;20342;-67
2022/08/05 05:28:10;;;;;;;9.05;2.88;;;21.80;71.50;;;;;;5015560;28;20129;-68
2022/08/05 05:30:36;;;;;;;5.28;2.35;;;21.80;71.40;;;;;;5015426;28;20037;-68
2022/08/05 05:33:03;;;;;;;6.82;2.50;;;21.80;71.40;;;;;;5011535;28;20370;-68
2022/08/05 05:35:30;;;;;;;8.77;2.70;;;21.90;71.40;;;;;;5010583;28;20026;-67
2022/08/05 05:37:59;;;;;;;5.80;2.30;;;21.90;71.40;;;;;;5013779;28;20363;-68
2022/08/05 05:40:26;;;;;;;5.63;2.22;;;21.90;71.30;;;;;;5016267;28;20103;-68
2022/08/05 05:42:53;;;;;;;7.45;2.80;;;21.90;71.20;;;;;;5014090;28;20040;-69
2022/08/05 05:45:19;;;;;;;5.78;2.58;;;21.90;71.10;;;;;;4999873;28;20045;-71
2022/08/05 05:47:46;;;;;;;6.07;2.58;;;22.00;71.00;;;;;;5022673;28;20028;-69
2022/08/05 05:50:15;;;;;;;5.57;2.22;;;22.00;70.90;;;;;;5032273;28;20030;-68
2022/08/05 05:52:42;;;;;;;6.28;2.38;;;22.00;70.90;;;;;;5021333;28;20091;-67
2022/08/05 05:55:10;;;;;;;6.90;2.60;;;22.00;70.80;;;;;;5031002;28;20064;-67
2022/08/05 05:57:37;;;;;;;5.82;2.45;;;22.00;70.70;;;;;;5020059;28;20033;-67
2022/08/05 06:00:13;;;;;;;7.88;2.38;;;22.00;70.80;;;;;;5037580;28;20095;-68
2022/08/05 06:02:40;;;;;;;6.45;2.50;;;22.00;70.70;;;;;;5021657;28;20462;-67
2022/08/05 06:05:08;;;;;;;5.57;2.50;;;22.00;70.80;;;;;;5019984;28;20112;-67
2022/08/05 06:07:33;;;;;;;6.38;2.28;;;22.00;70.80;;;;;;5020638;28;20068;-66
2022/08/05 06:09:59;;;;;;;8.77;2.60;;;22.00;70.70;;;;;;5019301;28;20069;-69
2022/08/05 06:12:24;;;;;;;6.07;2.03;;;22.00;70.70;;;;;;5020701;28;20057;-67
2022/08/05 06:14:50;;;;;;;7.07;2.38;;;21.90;70.60;;;;;;5029958;28;20038;-67
2022/08/05 06:17:16;;;;;;;4.40;1.85;;;21.90;70.50;;;;;;5014884;28;20032;-67
2022/08/05 06:19:41;;;;;;;4.45;2.22;;;21.90;70.50;;;;;;5020829;28;20084;-68
2022/08/05 06:22:08;;;;;;;6.95;2.50;;;21.90;70.50;;;;;;5033272;28;20026;-68
2022/08/05 06:24:34;;;;;;;9.05;2.30;;;22.00;70.60;;;;;;5029289;28;20057;-66
2022/08/05 06:27:00;;;;;;;6.50;2.53;;;22.00;70.50;;;;;;5013667;28;20324;-67
2022/08/05 06:29:26;;;;;;;4.72;2.15;;;22.00;70.40;;;;;;5005387;28;20515;-67
2022/08/05 06:31:52;;;;;;;5.65;1.88;;;22.10;70.30;;;;;;5001029;28;20078;-66
2022/08/05 06:34:18;;;;;;;6.50;2.45;;;22.10;70.10;;;;;;5009257;28;20032;-66
2022/08/05 06:36:43;;;;;;;6.35;2.20;;;22.20;70.00;;;;;;5007158;28;20026;-67
2022/08/05 06:39:09;;;;;;;6.68;2.30;;;22.20;69.70;;;;;;5004024;28;20030;-67
2022/08/05 06:41:35;;;;;;;5.47;2.08;;;22.20;69.60;;;;;;5005878;28;20188;-66
2022/08/05 06:44:01;;;;;;;6.55;2.33;;;22.20;69.60;;;;;;5010352;28;20025;-66
2022/08/05 06:46:26;;;;;;;4.88;2.13;;;22.20;69.50;;;;;;5009215;28;20026;-68
2022/08/05 06:48:52;;;;;;;5.90;1.80;;;22.20;69.40;;;;;;4994418;28;20038;-66
2022/08/05 06:51:18;;;;;;;4.32;2.13;;;22.20;69.20;;;;;;5011469;28;20026;-65
2022/08/05 06:53:43;;;;;;;7.35;2.45;;;22.20;69.10;;;;;;5009003;28;20037;-66
2022/08/05 06:56:09;;;;;;;7.85;2.28;;;22.20;69.00;;;;;;5005541;28;20340;-67
2022/08/05 06:58:34;;;;;;;6.15;2.00;;;22.20;68.80;;;;;;5006763;28;20084;-67
2022/08/05 07:01:01;;;;;;;4.28;1.73;;;22.20;68.70;;;;;;5007993;28;20517;-67
2022/08/05 07:03:29;;;;;;;4.07;1.73;;;22.30;68.60;;;;;;5013158;28;20030;-66
2022/08/05 07:05:54;;;;;;;4.85;2.05;;;22.30;68.60;;;;;;5011329;28;20030;-67
2022/08/05 07:08:21;;;;;;;4.78;2.05;;;22.30;68.50;;;;;;4993199;28;20023;-67
2022/08/05 07:10:47;;;;;;;4.97;1.83;;;22.30;68.30;;;;;;5011637;28;20069;-66
2022/08/05 07:18:42;;;;;;;5.40;2.28;;;22.30;67.90;;;;;;5013989;28;20037;-66
2022/08/05 07:21:07;;;;;;;4.75;1.77;;;22.30;67.80;;;;;;5011892;28;20347;-65
2022/08/05 07:23:33;;;;;;;4.50;1.75;;;22.30;67.80;;;;;;5007612;28;20072;-66
2022/08/05 07:25:59;;;;;;;6.10;1.90;;;22.40;67.80;;;;;;5009323;28;20030;-67
2022/08/05 07:28:26;;;;;;;4.72;1.90;;;22.40;67.60;;;;;;5006534;28;20030;-66
2022/08/05 07:30:51;;;;;;;5.57;2.00;;;22.50;67.50;;;;;;5011105;28;20029;-65
2022/08/05 07:33:19;;;;;;;7.75;2.05;;;22.50;67.30;;;;;;5010376;28;20030;-65
2022/08/05 07:35:45;;;;;;;5.07;1.75;;;22.60;67.20;;;;;;5011707;28;20033;-65
2022/08/05 07:38:11;;;;;;;5.28;2.17;;;22.60;67.00;;;;;;5012706;28;20095;-66
2022/08/05 07:40:36;;;;;;;4.88;1.67;;;22.60;66.90;;;;;;5012034;28;20113;-66
2022/08/05 07:43:02;;;;;;;5.80;1.80;;;22.70;66.70;;;;;;4991594;28;20026;-67
2022/08/05 07:45:28;;;;;;;4.53;1.70;;;22.70;66.50;;;;;;5012279;28;20438;-67
2022/08/05 07:47:53;;;;;;;4.93;1.63;;;22.80;66.30;;;;;;5011932;28;20048;-67
2022/08/05 07:50:19;;;;;;;4.88;1.83;;;22.80;66.10;;;;;;5008270;28;20034;-67
2022/08/05 07:52:45;;;;;;;4.47;1.65;;;23.00;65.70;;;;;;5007296;28;20445;-67
2022/08/05 07:55:11;;;;;;;4.63;1.60;;;23.10;65.30;;;;;;5010196;28;20084;-67
2022/08/05 07:57:37;;;;;;;4.68;1.90;;;23.10;65.00;;;;;;5005688;28;20350;-67
2022/08/05 08:00:04;;;;;;;4.28;1.50;;;23.40;64.60;;;;;;4988382;28;20030;-67
2022/08/05 08:02:37;;;;;;;5.60;1.80;;;23.80;63.90;;;;;;5011653;28;20132;-68
2022/08/05 08:05:03;;;;;;;4.18;1.58;;;24.20;62.70;;;;;;4990267;28;20514;-69
2022/08/05 08:07:29;;;;;;;4.63;1.70;;;24.30;62.00;;;;;;5007497;28;20096;-68
2022/08/05 08:09:54;;;;;;;5.45;1.60;;;24.30;61.70;;;;;;5001409;28;20056;-68
2022/08/05 08:12:21;;;;;;;4.22;1.60;;;24.10;61.60;;;;;;4993969;28;20067;-68
2022/08/05 08:14:46;;;;;;;4.45;1.70;;;24.00;61.60;;;;;;5006990;28;20408;-68
2022/08/05 08:17:12;;;;;;;2.88;1.30;;;24.00;61.60;;;;;;5002168;28;20104;-68
2022/08/05 08:19:39;;;;;;;3.20;1.40;;;24.10;61.50;;;;;;5008528;28;20031;-68
2022/08/05 08:22:06;;;;;;;3.47;1.60;;;24.10;61.00;;;;;;5004346;28;20407;-68
2022/08/05 08:24:32;;;;;;;3.70;1.30;;;24.20;60.80;;;;;;5009381;28;20494;-69
2022/08/05 08:26:58;;;;;;;4.38;1.50;;;24.40;60.10;;;;;;5006249;28;20018;-68
2022/08/05 08:29:23;;;;;;;3.28;1.42;;;24.40;59.70;;;;;;5004521;28;20022;-68
2022/08/05 08:31:50;;;;;;;4.25;1.40;;;24.60;59.40;;;;;;5021115;28;20339;-68
2022/08/05 08:34:21;;;;;;;3.78;1.30;;;24.70;58.80;;;;;;5012809;28;20037;-67
2022/08/05 08:36:46;;;;;;;2.73;1.30;;;24.70;58.50;;;;;;5007086;28;20032;-70
2022/08/05 08:39:13;;;;;;;4.68;1.45;;;24.80;58.50;;;;;;4986286;28;20030;-69
2022/08/05 08:41:41;;;;;;;3.80;1.38;;;24.80;58.10;;;;;;5006939;28;20386;-69
2022/08/05 08:44:07;;;;;;;7.15;1.77;;;24.80;58.00;;;;;;5006521;28;20134;-69
2022/08/05 08:46:33;;;;;;;4.88;1.50;;;24.80;58.20;;;;;;4992424;28;20033;-70
2022/08/05 08:49:02;;;;;;;4.30;1.45;;;24.80;57.90;;;;;;5007105;28;20038;-69
2022/08/05 08:51:31;;;;;;;1.73;1.10;;;24.70;57.60;;;;;;5015297;28;20045;-69
2022/08/05 08:53:58;;;;;;;3.13;1.38;;;24.70;57.70;;;;;;5019411;28;20460;-69
2022/08/05 08:56:24;;;;;;;2.65;1.30;;;24.70;57.80;;;;;;5013087;28;20022;-69
2022/08/05 08:58:50;;;;;;;3.08;1.33;;;24.60;57.90;;;;;;4985986;28;20030;-69
2022/08/05 09:01:16;;;;;;;6.53;1.30;;;24.50;57.60;;;;;;5012835;28;20021;-69
2022/08/05 09:03:46;;;;;;;5.13;1.73;;;24.40;57.50;;;;;;5013305;28;20050;-69
2022/08/05 09:06:12;;;;;;;3.13;1.38;;;24.30;57.60;;;;;;5012705;28;20026;-69
2022/08/05 09:08:38;;;;;;;2.97;1.08;;;24.20;57.70;;;;;;5012203;28;20124;-69
2022/08/05 09:11:04;;;;;;;3.58;1.20;;;24.10;57.80;;;;;;5011145;28;20045;-69
2022/08/05 09:13:33;;;;;;;5.18;1.30;;;23.90;57.90;;;;;;4995952;28;20125;-70
2022/08/05 09:15:59;;;;;;;4.82;1.10;;;23.90;57.80;;;;;;5011710;28;20120;-70
2022/08/05 09:18:25;;;;;;;4.05;1.33;;;23.80;58.00;;;;;;5010752;28;20092;-72
2022/08/05 09:20:51;;;;;;;3.03;1.17;;;23.80;57.80;;;;;;5012243;28;20030;-68
2022/08/05 09:23:19;;;;;;;6.63;1.27;;;23.90;57.30;;;;;;5015803;28;20026;-68
2022/08/05 09:25:49;;;;;;;3.17;1.00;;;24.00;56.80;;;;;;5023530;28;20029;-70
2022/08/05 09:28:17;;;;;;;3.28;1.15;;;24.10;56.70;;;;;;5022464;28;20045;-69
2022/08/05 09:30:54;;;;;;;3.78;1.25;;;24.10;56.60;;;;;;5017343;28;20101;-69
2022/08/05 09:33:21;;;;;;;5.28;1.50;;;24.10;56.60;;;;;;5016804;28;20030;-68
2022/08/05 09:36:16;;;;;;;3.08;1.20;;;24.00;56.40;;;;;;5017039;28;20351;-69
2022/08/05 09:38:55;;;;;;;2.72;1.10;;;24.00;56.40;;;;;;5013699;28;20045;-69
2022/08/05 09:41:20;;;;;;;1.50;0.93;;;24.00;56.10;;;;;;5018511;28;20394;-69
2022/08/05 09:43:46;;;;;;;2.20;1.13;;;24.20;55.10;;;;;;5019892;28;20030;-68
2022/08/05 09:46:27;;;;;;;3.22;0.90;;;24.30;54.30;;;;;;5018931;28;20025;-68
2022/08/05 09:48:53;;;;;;;1.92;1.05;;;24.50;53.00;;;;;;5035398;28;20029;-69
2022/08/05 09:51:31;;;;;;;2.90;0.73;;;24.90;52.20;;;;;;5018552;28;20461;-68
2022/08/05 09:53:57;;;;;;;2.85;0.90;;;25.30;50.90;;;;;;5022642;28;20017;-68
2022/08/05 09:56:27;;;;;;;1.55;0.68;;;25.70;50.40;;;;;;5029602;28;20564;-70
2022/08/05 09:59:04;;;;;;;3.53;1.10;;;25.90;49.60;;;;;;5024756;28;20053;-68
2022/08/05 10:01:35;;;;;;;1.38;0.70;;;26.40;49.30;;;;;;5011537;28;20137;-70
2022/08/05 10:04:04;;;;;;;;;;;26.60;48.60;;;;;;5012598;28;20112;-71
2022/08/05 10:06:30;;;;;;;1.58;0.75;;;27.00;48.60;;;;;;5012694;28;19909;-69
2022/08/05 10:09:16;;;;;;;1.15;0.60;;;27.30;47.60;;;;;;5014839;28;20038;-70
2022/08/05 10:11:43;;;;;;;1.33;0.77;;;27.70;46.80;;;;;;5008361;28;20049;-69
2022/08/05 10:14:29;;;;;;;1.55;0.60;;;27.90;46.50;;;;;;5019909;28;20418;-69
2022/08/05 10:16:56;;;;;;;1.50;0.63;;;28.20;45.20;;;;;;5023005;28;20038;-69
2022/08/05 10:19:25;;;;;;;2.28;0.65;;;28.20;44.30;;;;;;5010866;28;20080;-70
2022/08/05 10:21:51;;;;;;;1.85;0.63;;;28.00;43.80;;;;;;5014770;28;20359;-69
2022/08/05 10:24:18;;;;;;;1.13;0.57;;;27.60;43.90;;;;;;5020127;28;20017;-69
2022/08/05 10:26:46;;;;;;;1.02;0.45;;;27.30;44.30;;;;;;5010328;28;20114;-68
2022/08/05 10:29:12;;;;;;;0.40;0.40;;;26.90;44.70;;;;;;5013113;28;20092;-68
2022/08/05 10:31:41;;;;;;;1.42;0.70;;;26.70;45.00;;;;;;5012081;28;20447;-68
2022/08/05 10:34:08;;;;;;;2.03;0.80;;;26.40;45.00;;;;;;5009408;28;20105;-68
2022/08/05 10:36:39;;;;;;;2.75;0.77;;;26.20;45.10;;;;;;5011401;28;21225;-68
2022/08/05 10:39:30;;;;;;;4.35;0.95;;;26.20;44.70;;;;;;5012222;28;20026;-71
2022/08/05 10:42:25;;;;;;;1.02;0.65;;;26.20;44.80;;;;;;5025835;28;20037;-68
2022/08/05 10:44:54;;;;;;;0.98;0.50;;;26.10;44.80;;;;;;5011282;28;20034;-68
2022/08/05 10:47:31;;;;;;;2.95;0.93;;;26.20;44.60;;;;;;5018424;28;20022;-68
2022/08/05 10:50:11;;;;;;;2.00;0.85;;;26.40;43.80;;;;;;5012411;28;20080;-68
2022/08/05 10:52:58;;;;;;;3.42;0.85;;;26.60;43.30;;;;;;5015762;28;20461;-68
2022/08/05 10:55:25;;;;;;;1.92;0.60;;;26.80;42.70;;;;;;5009022;28;20049;-69
2022/08/05 10:58:08;;;;;;;2.92;0.88;;;27.00;42.30;;;;;;4982932;28;20041;-69
2022/08/05 11:00:34;;;;;;;4.43;0.98;;;27.30;41.60;;;;;;4999405;28;20023;-69
2022/08/05 11:03:06;;;;;;;1.75;0.57;;;27.30;41.40;;;;;;5014550;28;20375;-69
2022/08/05 11:05:33;;;;;;;1.35;0.52;;;27.30;41.10;;;;;;5014195;28;20112;-69
2022/08/05 11:08:06;;;;;;;3.15;0.93;;;27.50;41.00;;;;;;4982774;28;20428;-69
2022/08/05 11:10:35;;;;;;;0.65;0.43;;;27.60;40.70;;;;;;5008981;28;20022;-69
2022/08/05 11:13:02;;;;;;;2.35;0.77;;;27.70;40.60;;;;;;5001159;28;20037;-69
2022/08/05 11:15:33;;;;;;;3.08;1.00;;;27.70;40.20;;;;;;4998763;28;20029;-69
2022/08/05 11:18:23;;;;;;;1.38;0.50;;;27.40;40.10;;;;;;5013855;28;20038;-70
2022/08/05 11:20:50;;;;;;;1.75;0.70;;;27.40;39.70;;;;;;5020020;28;20509;-69
2022/08/05 11:23:33;;;;;;;1.85;0.70;;;27.30;39.60;;;;;;5003463;28;20046;-69
2022/08/05 11:26:10;;;;;;;1.75;0.70;;;27.20;38.70;;;;;;5011337;28;20068;-69
2022/08/05 11:28:43;;;;;;;2.90;1.13;;;27.10;39.00;;;;;;5026912;28;20524;-69
2022/08/05 11:31:08;;;;;;;2.47;0.63;;;26.90;38.00;;;;;;5022112;28;20036;-69
2022/08/05 11:33:36;;;;;;;1.45;0.60;;;26.80;38.10;;;;;;5019704;28;20041;-68
2022/08/05 11:36:06;;;;;;;2.55;0.50;;;26.80;37.90;;;;;;5023452;28;20022;-69
2022/08/05 11:38:38;;;;;;;1.13;0.52;;;26.80;37.80;;;;;;5034470;28;20405;-69
2022/08/05 11:41:19;;;;;;;2.60;0.80;;;26.70;38.20;;;;;;5032050;28;20036;-69
2022/08/05 11:44:14;;;;;;;2.80;0.80;;;26.60;38.60;;;;;;5023184;28;20342;-69
2022/08/05 11:46:45;;;;;;;1.52;0.60;;;26.50;38.20;;;;;;5028760;28;20022;-68
2022/08/05 11:49:12;;;;;;;;;;;26.50;38.10;;;;;;5021191;28;20412;-69
2022/08/05 11:51:47;;;;;;;3.55;0.95;;;26.50;38.00;;;;;;5017938;28;19910;-68
2022/08/05 11:54:23;;;;;;;1.83;0.70;;;26.40;37.80;;;;;;5027726;28;20033;-68
2022/08/05 11:56:52;;;;;;;3.83;1.02;;;26.40;37.60;;;;;;5023810;28;20129;-70
2022/08/05 11:59:28;;;;;;;2.65;0.65;;;26.40;37.50;;;;;;4994927;28;20040;-70
2022/08/05 12:02:01;;;;;;;0.63;0.47;;;26.30;37.60;;;;;;5022818;28;20113;-70
2022/08/05 12:04:36;;;;;;;1.27;0.60;;;26.30;37.90;;;;;;5022075;28;20017;-70
2022/08/05 12:07:02;;;;;;;0.88;0.43;;;26.20;37.70;;;;;;5023287;28;20056;-71
2022/08/05 12:09:34;;;;;;;2.63;0.80;;;26.20;38.00;;;;;;5000005;28;20378;-70
2022/08/05 12:12:00;;;;;;;2.70;0.70;;;26.50;38.10;;;;;;5005995;28;20456;-70
2022/08/05 12:14:41;;;;;;;3.20;0.70;;;26.80;38.00;;;;;;5019238;28;20082;-70
2022/08/05 12:17:08;;;;;;;;;;;27.00;37.80;;;;;;5017162;28;20084;-70
2022/08/05 12:19:47;;;;;;;1.10;0.47;;;27.00;38.10;;;;;;5015061;28;20394;-70
2022/08/05 12:22:16;;;;;;;1.48;0.73;;;26.80;37.50;;;;;;5010798;28;20109;-69
2022/08/05 12:24:44;;;;;;;3.10;0.90;;;26.60;37.40;;;;;;5034003;28;20025;-68
2022/08/05 12:27:19;;;;;;;1.48;0.60;;;26.50;37.10;;;;;;5029635;28;20032;-68
2022/08/05 12:29:44;;;;;;;1.00;0.60;;;26.50;37.10;;;;;;5003899;28;20313;-69
2022/08/05 12:32:11;;;;;;;2.10;0.60;;;26.40;37.10;;;;;;4993027;28;20092;-68
2022/08/05 12:34:37;;;;;;;1.92;0.80;;;26.40;36.60;;;;;;5017953;28;20033;-69
2022/08/05 12:37:10;;;;;;;1.90;0.63;;;26.20;36.30;;;;;;4999163;28;20057;-69
2022/08/05 12:39:38;;;;;;;2.45;0.60;;;26.10;36.20;;;;;;5002979;28;20044;-68
2022/08/05 12:42:09;;;;;;;2.40;0.90;;;26.20;36.20;;;;;;4998404;28;20035;-68
2022/08/05 12:44:35;;;;;;;2.40;0.68;;;26.10;36.20;;;;;;5004983;28;20023;-69
2022/08/05 12:47:01;;;;;;;1.48;0.80;;;26.10;36.40;;;;;;5009084;28;20040;-68
2022/08/05 12:49:41;;;;;;;3.05;0.77;;;26.10;36.30;;;;;;5009949;28;20053;-69
2022/08/05 12:52:15;;;;;;;1.13;0.60;;;26.20;36.20;;;;;;5011050;28;20026;-68
2022/08/05 12:54:43;;;;;;;2.45;0.73;;;26.10;36.20;;;;;;5016436;28;20391;-69
2022/08/05 12:57:13;;;;;;;1.38;0.60;;;26.20;36.30;;;;;;5007949;28;20099;-69
2022/08/05 12:59:44;;;;;;;2.57;0.67;;;26.20;36.10;;;;;;4990879;28;20036;-69
2022/08/05 13:02:10;;;;;;;1.35;0.60;;;26.00;36.20;;;;;;5008891;28;20041;-69